McConnell AFB, Kansas
Current Conditions -  °F | °C
As of 3:54 AM on Tuesday 21 Oct 2014 (Local Time) from KWLD Reporting Station
Clear Clear  
Wind Chill: 12°   Ceiling: Unl
Heat Index: 12°   Visibility: 9mi
Dew Point: 11°   Wind: 3mph
Humidity: 96%   Direction: 80°E
Pressure: 30.07"   Gusts: NA
Location:  37.38°N, 97.15°W
Report Text: KWLD 210854Z AUTO 08003KT 9SM CLR 12/11 A3007 RMK AO2 SLP176 T01170111 50001
Loading
Personal Weather Stations






























Interactive Weather Map
Tropical Storm Tracking
New forecast layout! Learn more

10-Day Weather Forecast

Advertisements
Track Severe Weather on mobile